createdAt,value
2018-12-07T00:01:06.494Z,70.67
2018-12-07T00:03:35.901Z,72.93
2018-12-07T00:06:05.350Z,71.87
2018-12-07T00:08:34.757Z,69.13
2018-12-07T00:11:04.189Z,68.33
2018-12-07T00:13:34.062Z,67.70
2018-12-07T00:16:03.499Z,67.93
2018-12-07T00:18:32.900Z,65.57
2018-12-07T00:21:02.332Z,65.77
2018-12-07T00:23:31.737Z,63.13
2018-12-07T00:26:01.156Z,64.17
2018-12-07T00:28:30.561Z,62.03
2018-12-07T00:30:59.987Z,61.20
2018-12-07T00:33:29.403Z,62.83
2018-12-07T00:35:58.834Z,60.27
2018-12-07T00:38:28.274Z,60.63
2018-12-07T00:40:57.734Z,59.37
2018-12-07T00:43:27.150Z,58.40
2018-12-07T00:45:56.567Z,58.67
2018-12-07T00:48:25.982Z,57.70
2018-12-07T00:50:55.385Z,55.47
2018-12-07T00:53:24.789Z,56.00
2018-12-07T00:55:54.179Z,54.57
2018-12-07T00:58:23.592Z,54.20
2018-12-07T01:00:53.014Z,52.67
2018-12-07T01:03:22.425Z,53.13
2018-12-07T01:05:51.840Z,53.73
2018-12-07T01:08:21.261Z,50.83
2018-12-07T01:10:50.673Z,50.70
2018-12-07T01:13:20.077Z,49.60
2018-12-07T01:15:49.481Z,49.77
2018-12-07T01:18:18.885Z,49.50
2018-12-07T01:20:48.280Z,48.63
2018-12-07T01:23:17.676Z,48.27
2018-12-07T01:25:47.092Z,48.77
2018-12-07T01:28:16.530Z,47.67
2018-12-07T01:30:45.947Z,46.27
2018-12-07T01:33:15.364Z,45.93
2018-12-07T01:35:44.775Z,46.27
2018-12-07T01:38:14.238Z,45.80
2018-12-07T01:40:43.641Z,43.70
2018-12-07T01:43:13.081Z,44.13
2018-12-07T01:45:42.472Z,45.47
2018-12-07T01:48:11.892Z,43.03
2018-12-07T01:50:41.389Z,44.13
2018-12-07T01:53:10.801Z,42.33
2018-12-07T01:55:40.221Z,41.53
2018-12-07T01:58:09.634Z,40.17
2018-12-07T02:00:39.070Z,40.93
2018-12-07T02:03:08.549Z,42.23
2018-12-07T02:05:37.961Z,41.13
2018-12-07T02:10:41.893Z,40.20
2018-12-07T02:13:11.396Z,38.27
2018-12-07T02:15:40.811Z,38.57
2018-12-07T02:18:10.209Z,39.93
2018-12-07T02:20:39.644Z,37.40
2018-12-07T02:23:09.053Z,38.10
2018-12-07T02:25:38.480Z,36.70
2018-12-07T02:28:07.888Z,35.27
2018-12-07T02:30:37.421Z,36.90
2018-12-07T02:33:07.913Z,36.73
2018-12-07T02:35:37.326Z,34.83
2018-12-07T02:38:06.733Z,36.30
2018-12-07T02:40:36.150Z,35.37
2018-12-07T02:43:05.562Z,35.50
2018-12-07T02:45:34.974Z,33.97
2018-12-07T02:48:04.393Z,34.20
2018-12-07T02:50:33.949Z,32.23
2018-12-07T02:53:03.365Z,34.40
2018-12-07T02:55:32.781Z,33.47
2018-12-07T02:58:02.765Z,32.33
2018-12-07T03:00:32.222Z,31.90
2018-12-07T03:03:01.641Z,30.87
2018-12-07T03:05:31.041Z,30.60
2018-12-07T03:08:00.466Z,30.97
2018-12-07T03:10:29.877Z,30.80
2018-12-07T03:12:59.302Z,30.90
2018-12-07T03:15:28.697Z,30.43
2018-12-07T03:17:58.137Z,30.27
2018-12-07T03:20:27.552Z,29.63
2018-12-07T03:22:56.969Z,28.33
2018-12-07T03:25:26.373Z,29.13
2018-12-07T03:27:55.812Z,28.47
2018-12-07T03:30:25.214Z,28.80
2018-12-07T03:32:54.657Z,27.63
2018-12-07T03:35:24.057Z,27.27
2018-12-07T03:37:53.503Z,27.57
2018-12-07T03:40:22.964Z,26.27
2018-12-07T03:42:52.589Z,27.23
2018-12-07T03:45:21.993Z,26.80
2018-12-07T03:47:52.256Z,27.63
2018-12-07T03:50:21.769Z,26.43
2018-12-07T03:52:51.674Z,26.53
2018-12-07T03:55:21.144Z,24.90
2018-12-07T03:57:50.593Z,23.67
2018-12-07T04:00:19.998Z,27.70
2018-12-07T04:02:49.426Z,30.37
2018-12-07T04:05:19.959Z,31.90
2018-12-07T04:07:49.430Z,35.37
2018-12-07T04:10:18.849Z,36.50
2018-12-07T04:12:48.305Z,36.90
2018-12-07T04:15:17.737Z,41.90
2018-12-07T04:17:47.385Z,38.47
2018-12-07T04:20:16.806Z,37.87
2018-12-07T04:22:46.205Z,37.40
2018-12-07T04:25:15.794Z,37.10
2018-12-07T04:27:47.266Z,38.80
2018-12-07T04:30:25.427Z,37.30
2018-12-07T04:32:54.961Z,38.10
2018-12-07T04:35:24.359Z,38.20
2018-12-07T04:37:53.780Z,38.27
2018-12-07T04:40:23.181Z,37.63
2018-12-07T04:42:52.578Z,38.33
2018-12-07T04:45:21.993Z,39.70
2018-12-07T04:47:52.281Z,37.97
2018-12-07T04:50:21.685Z,37.60
2018-12-07T04:52:51.077Z,37.50
2018-12-07T04:55:20.489Z,38.93
2018-12-07T04:57:50.013Z,36.23
2018-12-07T05:00:19.477Z,36.30
2018-12-07T05:02:48.882Z,35.00
2018-12-07T05:05:18.303Z,36.67
2018-12-07T05:07:47.719Z,35.00
2018-12-07T05:10:17.177Z,35.43
2018-12-07T05:12:46.580Z,35.83
2018-12-07T05:15:15.975Z,34.07
2018-12-07T05:17:45.405Z,33.73
2018-12-07T05:20:14.831Z,34.73
2018-12-07T05:22:44.266Z,34.37
2018-12-07T05:25:14.617Z,32.33
2018-12-07T05:27:44.053Z,33.73
2018-12-07T05:30:13.448Z,33.17
2018-12-07T05:32:42.921Z,31.67
2018-12-07T05:35:12.323Z,34.10
2018-12-07T05:37:41.779Z,33.17
2018-12-07T05:40:11.184Z,31.37
2018-12-07T05:42:40.605Z,31.17
2018-12-07T05:45:10.032Z,30.97
2018-12-07T05:47:40.494Z,29.60
2018-12-07T05:50:09.909Z,29.90
2018-12-07T05:52:39.353Z,30.37
2018-12-07T05:55:08.765Z,29.13
2018-12-07T05:57:38.185Z,29.03
2018-12-07T06:00:08.977Z,29.43
2018-12-07T06:02:38.417Z,27.97
2018-12-07T06:05:08.960Z,28.10
2018-12-07T06:07:38.385Z,26.23
2018-12-07T06:10:07.789Z,28.17
2018-12-07T06:12:37.229Z,29.50
2018-12-07T06:15:06.885Z,31.67
2018-12-07T06:17:37.084Z,31.77
2018-12-07T06:20:06.821Z,29.80
2018-12-07T06:22:36.235Z,31.03
2018-12-07T06:25:06.227Z,29.97
2018-12-07T06:27:35.733Z,31.03
2018-12-07T06:30:05.737Z,31.03
2018-12-07T06:32:36.343Z,30.10
2018-12-07T06:35:09.590Z,33.77
2018-12-07T06:37:38.988Z,34.33
2018-12-07T06:40:09.069Z,37.20
2018-12-07T06:42:38.481Z,35.80
2018-12-07T06:45:08.012Z,34.90
2018-12-07T06:47:37.479Z,38.27
2018-12-07T06:50:09.289Z,42.80
2018-12-07T06:52:38.712Z,43.37
2018-12-07T06:55:08.164Z,43.90
2018-12-07T06:57:37.678Z,47.07
2018-12-07T07:00:12.181Z,46.20
2018-12-07T07:02:41.585Z,50.97
2018-12-07T07:05:11.221Z,51.03
2018-12-07T07:07:40.634Z,51.23
2018-12-07T07:10:18.861Z,49.93
2018-12-07T07:12:48.281Z,52.40
2018-12-07T07:15:17.696Z,49.20
2018-12-07T07:17:47.098Z,51.57
2018-12-07T07:20:16.576Z,57.60
2018-12-07T07:22:46.001Z,53.87
2018-12-07T07:25:15.401Z,52.07
2018-12-07T07:27:44.809Z,53.47
2018-12-07T07:30:14.364Z,53.27
2018-12-07T07:32:44.401Z,51.80
2018-12-07T07:35:13.813Z,52.90
2018-12-07T07:37:44.376Z,51.53
2018-12-07T07:40:13.771Z,52.57
2018-12-07T07:42:43.273Z,52.87
2018-12-07T07:45:12.661Z,50.87
2018-12-07T07:47:42.080Z,49.50
2018-12-07T07:50:11.477Z,49.00
2018-12-07T07:52:40.873Z,49.77
2018-12-07T07:55:10.276Z,50.17
2018-12-07T07:57:39.706Z,52.33
2018-12-07T08:00:09.102Z,48.73
2018-12-07T08:02:38.510Z,49.97
2018-12-07T08:05:07.920Z,48.20
2018-12-07T08:07:37.326Z,47.87
2018-12-07T08:10:06.740Z,47.37
2018-12-07T08:12:36.185Z,46.87
2018-12-07T08:15:06.075Z,48.73
2018-12-07T08:17:36.464Z,47.23
2018-12-07T08:20:06.324Z,45.50
2018-12-07T08:22:36.903Z,45.50
2018-12-07T08:25:06.756Z,44.67
2018-12-07T08:27:36.202Z,44.60
2018-12-07T08:30:07.993Z,45.20
2018-12-07T08:32:37.509Z,43.27
2018-12-07T08:35:07.388Z,42.70
2018-12-07T08:37:36.848Z,42.13
2018-12-07T08:40:07.985Z,42.10
2018-12-07T08:42:37.437Z,41.77
2018-12-07T08:45:08.220Z,41.83
2018-12-07T08:47:39.384Z,41.57
2018-12-07T08:50:09.125Z,41.23
2018-12-07T08:52:38.548Z,39.90
2018-12-07T08:55:07.977Z,40.10
2018-12-07T08:57:37.385Z,39.90
2018-12-07T09:00:08.682Z,39.70
2018-12-07T09:02:38.106Z,37.87
2018-12-07T09:05:07.577Z,38.93
2018-12-07T09:07:37.578Z,39.47
2018-12-07T09:10:07.208Z,37.37
2018-12-07T09:12:36.616Z,37.80
2018-12-07T09:15:06.153Z,37.53
2018-12-07T09:17:35.557Z,36.83
2018-12-07T09:20:06.412Z,37.40
2018-12-07T09:22:35.828Z,35.77
2018-12-07T09:25:05.537Z,35.80
2018-12-07T09:27:34.957Z,35.67
2018-12-07T09:30:04.855Z,34.73
2018-12-07T09:32:34.274Z,33.97
2018-12-07T09:35:03.778Z,35.03
2018-12-07T09:37:33.181Z,33.33
2018-12-07T09:40:02.760Z,34.10
2018-12-07T09:42:32.157Z,33.17
2018-12-07T09:45:01.701Z,34.60
2018-12-07T09:47:31.148Z,33.43
2018-12-07T09:50:00.576Z,31.70
2018-12-07T09:52:30.026Z,31.67
2018-12-07T09:54:59.457Z,33.70
2018-12-07T09:57:28.940Z,32.67
2018-12-07T09:59:58.344Z,30.87
2018-12-07T10:02:27.821Z,30.57
2018-12-07T10:04:57.221Z,30.80
2018-12-07T10:07:26.662Z,30.40
2018-12-07T10:09:56.073Z,28.70
2018-12-07T10:12:25.538Z,30.13
2018-12-07T10:14:54.957Z,28.97
2018-12-07T10:17:25.117Z,30.67
2018-12-07T10:19:54.518Z,28.40
2018-12-07T10:22:23.948Z,29.23
2018-12-07T10:24:53.352Z,28.73
2018-12-07T10:27:22.789Z,28.43
2018-12-07T10:29:52.196Z,27.50
2018-12-07T10:32:21.616Z,28.33
2018-12-07T10:34:51.033Z,27.47
2018-12-07T10:37:20.485Z,26.93
2018-12-07T10:39:49.905Z,26.70
2018-12-07T10:42:19.329Z,27.20
2018-12-07T10:44:48.725Z,27.17
2018-12-07T10:47:18.155Z,26.10
2018-12-07T10:49:47.541Z,27.23
2018-12-07T10:52:16.951Z,25.97
2018-12-07T10:54:46.373Z,25.37
2018-12-07T10:57:15.777Z,25.43
2018-12-07T10:59:46.891Z,24.97
2018-12-07T11:02:21.802Z,25.23
2018-12-07T11:04:56.373Z,24.03
2018-12-07T11:07:30.946Z,24.50
2018-12-07T11:10:05.539Z,24.10
2018-12-07T11:12:40.009Z,24.43
2018-12-07T11:15:14.543Z,23.50
2018-12-07T11:17:49.061Z,23.63
2018-12-07T11:20:23.441Z,22.50
2018-12-07T11:22:58.069Z,23.50
2018-12-07T11:25:33.661Z,23.53
2018-12-07T11:28:08.153Z,22.23
2018-12-07T11:30:42.725Z,22.43
2018-12-07T11:33:52.161Z,21.77
2018-12-07T11:36:21.596Z,22.87
2018-12-07T11:38:51.023Z,20.53
2018-12-07T11:41:20.467Z,21.60
2018-12-07T11:43:51.934Z,22.07
2018-12-07T11:46:21.372Z,21.40
2018-12-07T11:48:50.784Z,21.23
2018-12-07T11:51:20.224Z,20.93
2018-12-07T11:53:49.694Z,21.00
2018-12-07T11:56:19.418Z,20.90
2018-12-07T11:58:48.828Z,21.07
2018-12-07T12:01:18.285Z,19.50
2018-12-07T12:03:47.740Z,19.30
2018-12-07T12:06:17.185Z,19.53
2018-12-07T12:08:46.605Z,20.33
2018-12-07T12:11:18.097Z,20.33
2018-12-07T12:13:47.530Z,19.53
2018-12-07T12:16:17.001Z,18.87
2018-12-07T12:18:46.401Z,19.27
2018-12-07T12:21:15.826Z,19.67
2018-12-07T12:23:45.252Z,19.23
2018-12-07T12:26:14.692Z,18.50
2018-12-07T12:28:44.096Z,19.10
2018-12-07T12:31:13.537Z,18.37
2018-12-07T12:33:42.973Z,18.07
2018-12-07T12:36:17.037Z,17.77
2018-12-07T12:38:43.833Z,18.47
2018-12-07T12:41:13.277Z,17.43
2018-12-07T12:43:42.689Z,17.87
2018-12-07T12:46:12.122Z,17.13
2018-12-07T12:48:41.576Z,17.77
2018-12-07T12:51:10.972Z,18.30
2018-12-07T12:53:40.399Z,17.87
2018-12-07T12:56:09.814Z,17.47
2018-12-07T12:58:39.216Z,17.83
2018-12-07T13:01:08.644Z,16.53
2018-12-07T13:03:38.057Z,16.73
2018-12-07T13:06:07.486Z,15.93
2018-12-07T13:08:38.017Z,17.17
2018-12-07T13:11:07.441Z,16.33
2018-12-07T13:13:36.884Z,16.77
2018-12-07T13:16:07.253Z,15.47
2018-12-07T13:18:36.692Z,15.43
2018-12-07T13:21:06.219Z,16.30
2018-12-07T13:23:35.640Z,15.20
2018-12-07T13:26:05.072Z,15.13
2018-12-07T13:28:34.525Z,14.80
2018-12-07T13:31:03.933Z,14.53
2018-12-07T13:33:33.381Z,14.30
2018-12-07T13:36:02.835Z,13.83
2018-12-07T13:38:32.569Z,14.80
2018-12-07T13:41:02.057Z,14.43
2018-12-07T13:43:31.581Z,13.80
2018-12-07T13:46:01.286Z,14.70
2018-12-07T13:48:30.905Z,13.77
2018-12-07T13:51:00.420Z,14.83
2018-12-07T13:53:30.330Z,13.40
2018-12-07T13:55:59.956Z,13.90
2018-12-07T13:58:29.416Z,13.80
2018-12-07T14:00:59.116Z,12.77
2018-12-07T14:03:28.755Z,12.80
2018-12-07T14:05:59.433Z,12.93
2018-12-07T14:08:29.085Z,12.53
2018-12-07T14:10:59.036Z,12.73
2018-12-07T14:13:28.715Z,12.20
2018-12-07T14:15:58.675Z,11.87
2018-12-07T14:18:28.831Z,12.07
2018-12-07T14:20:58.383Z,12.13
2018-12-07T14:23:27.931Z,11.80
2018-12-07T14:25:57.455Z,11.97
2018-12-07T14:28:27.411Z,12.47
2018-12-07T14:30:57.495Z,12.30
2018-12-07T14:33:27.257Z,10.97
2018-12-07T14:35:56.879Z,11.70
2018-12-07T14:38:26.408Z,11.53
2018-12-07T14:40:55.918Z,11.67
2018-12-07T14:43:25.699Z,11.13
2018-12-07T14:45:55.383Z,11.73
2018-12-07T14:48:25.095Z,11.73
2018-12-07T14:50:56.385Z,11.03
2018-12-07T14:53:25.874Z,10.83
2018-12-07T14:55:55.424Z,10.47
2018-12-07T14:58:24.976Z,10.23
2018-12-07T15:00:55.621Z,11.10
2018-12-07T15:03:25.294Z,11.57
2018-12-07T15:05:54.937Z,11.33
2018-12-07T15:08:24.894Z,9.73
2018-12-07T15:10:54.408Z,11.07
2018-12-07T15:13:24.294Z,10.50
2018-12-07T15:15:53.801Z,10.30
2018-12-07T15:18:23.380Z,10.90
2018-12-07T15:20:52.933Z,10.77
2018-12-07T15:23:22.540Z,10.60
2018-12-07T15:25:58.482Z,10.80
2018-12-07T15:28:28.038Z,10.47
2018-12-07T15:30:57.436Z,10.27
2018-12-07T15:33:27.223Z,10.20
2018-12-07T15:35:56.762Z,9.90
2018-12-07T15:38:26.401Z,10.53
2018-12-07T15:40:55.843Z,9.97
2018-12-07T15:43:25.598Z,10.57
2018-12-07T15:45:57.604Z,10.43
2018-12-07T15:48:27.256Z,9.60
2018-12-07T15:50:56.814Z,9.63
2018-12-07T15:53:26.508Z,9.80
2018-12-07T15:55:56.159Z,9.97
2018-12-07T15:58:25.955Z,9.83
2018-12-07T16:00:55.542Z,9.80
2018-12-07T16:03:25.213Z,9.50
2018-12-07T16:05:54.747Z,9.57
2018-12-07T16:08:25.045Z,9.43
2018-12-07T16:10:55.010Z,9.57
2018-12-07T16:13:24.738Z,9.70
2018-12-07T16:15:54.294Z,9.57
2018-12-07T16:18:23.778Z,9.43
2018-12-07T16:20:53.318Z,9.03
2018-12-07T16:23:24.260Z,8.60
2018-12-07T16:25:54.324Z,8.80
2018-12-07T16:28:24.212Z,8.67
2018-12-07T16:30:53.787Z,8.77
2018-12-07T16:33:23.532Z,9.00
2018-12-07T16:35:53.093Z,9.37
2018-12-07T16:38:22.647Z,8.87
2018-12-07T16:40:52.137Z,8.80
2018-12-07T16:43:22.677Z,8.70
2018-12-07T16:45:52.437Z,8.80
2018-12-07T16:48:23.252Z,8.83
2018-12-07T16:50:53.272Z,8.83
2018-12-07T16:53:22.923Z,8.90
2018-12-07T16:55:52.711Z,8.57
2018-12-07T16:58:22.437Z,8.03
2018-12-07T17:00:51.969Z,8.53
2018-12-07T17:03:21.382Z,9.00
2018-12-07T17:05:50.813Z,8.87
2018-12-07T17:08:20.796Z,8.30
2018-12-07T17:10:50.350Z,8.43
2018-12-07T17:13:19.870Z,8.50
2018-12-07T17:15:50.515Z,8.57
2018-12-07T17:18:20.043Z,8.20
2018-12-07T17:20:49.561Z,8.53
2018-12-07T17:23:19.120Z,9.20
2018-12-07T17:25:48.749Z,9.43
2018-12-07T17:28:18.374Z,9.33
2018-12-07T17:30:47.942Z,9.00
2018-12-07T17:33:17.515Z,9.13
2018-12-07T17:35:47.094Z,9.57
2018-12-07T17:38:16.777Z,8.77
2018-12-07T17:40:46.443Z,8.63
2018-12-07T17:43:16.190Z,9.67
2018-12-07T17:45:45.787Z,9.47
2018-12-07T17:48:15.320Z,9.40
2018-12-07T17:50:44.919Z,9.30
2018-12-07T17:53:15.428Z,10.57
2018-12-07T17:55:46.084Z,15.00
2018-12-07T17:58:15.759Z,26.37
2018-12-07T18:00:45.297Z,29.27
2018-12-07T18:03:14.761Z,35.33
2018-12-07T18:05:44.328Z,35.30
2018-12-07T18:08:13.888Z,33.73
2018-12-07T18:10:43.408Z,36.73
2018-12-07T18:13:13.160Z,38.27
2018-12-07T18:15:43.016Z,37.83
2018-12-07T18:18:13.605Z,39.83
2018-12-07T18:20:43.181Z,41.90
2018-12-07T18:23:13.109Z,41.83
2018-12-07T18:25:43.426Z,45.43
2018-12-07T18:28:12.899Z,45.63
2018-12-07T18:30:42.366Z,47.03
2018-12-07T18:33:11.801Z,46.70
2018-12-07T18:35:41.318Z,49.47
2018-12-07T18:38:11.253Z,51.20
2018-12-07T18:40:41.058Z,54.47
2018-12-07T18:43:12.429Z,55.93
2018-12-07T18:45:42.288Z,55.63
2018-12-07T18:48:12.101Z,54.40
2018-12-07T18:50:41.989Z,54.13
2018-12-07T18:53:11.719Z,52.83
2018-12-07T18:55:41.405Z,54.30
2018-12-07T18:58:11.069Z,53.30
2018-12-07T19:00:41.053Z,52.87
2018-12-07T19:03:10.900Z,55.20
2018-12-07T19:05:42.357Z,60.67
2018-12-07T19:08:13.441Z,59.63
2018-12-07T19:10:44.251Z,62.07
2018-12-07T19:13:14.402Z,67.07
2018-12-07T19:15:44.225Z,67.40
2018-12-07T19:18:15.398Z,65.27
2018-12-07T19:20:46.146Z,68.00
2018-12-07T19:23:15.758Z,80.93
2018-12-07T19:25:45.527Z,81.73
2018-12-07T19:28:15.477Z,90.77
2018-12-07T19:30:45.563Z,91.30
2018-12-07T19:33:15.513Z,91.80
2018-12-07T19:35:45.556Z,95.70
2018-12-07T19:38:15.390Z,88.97
2018-12-07T19:40:45.142Z,90.40
2018-12-07T19:43:15.025Z,90.60
2018-12-07T19:45:44.999Z,90.60
2018-12-07T19:48:15.074Z,91.00
2018-12-07T19:50:45.278Z,91.97
2018-12-07T19:53:16.686Z,90.67
2018-12-07T19:55:46.288Z,92.53
2018-12-07T19:58:15.882Z,93.50
2018-12-07T20:00:45.391Z,93.70
2018-12-07T20:03:14.842Z,91.10
2018-12-07T20:05:44.305Z,93.63
2018-12-07T20:08:14.113Z,96.13
2018-12-07T20:10:44.024Z,95.73
2018-12-07T20:13:13.804Z,94.27
2018-12-07T20:15:43.674Z,93.10
2018-12-07T20:18:14.862Z,92.07
2018-12-07T20:20:44.638Z,90.57
2018-12-07T20:23:14.575Z,89.40
2018-12-07T20:25:44.255Z,90.93
2018-12-07T20:28:14.341Z,92.77
2018-12-07T20:30:44.065Z,91.33
2018-12-07T20:33:14.203Z,90.50
2018-12-07T20:35:43.759Z,91.00
2018-12-07T20:38:13.356Z,93.17
2018-12-07T20:40:44.463Z,91.73
2018-12-07T20:43:14.713Z,91.10
2018-12-07T20:45:44.990Z,90.07
2018-12-07T20:48:14.690Z,89.93
2018-12-07T20:50:44.217Z,90.17
2018-12-07T20:53:13.905Z,89.20
2018-12-07T20:55:45.796Z,88.90
2018-12-07T20:58:15.428Z,88.57
2018-12-07T21:00:45.325Z,97.13
2018-12-07T21:03:15.298Z,100.93
2018-12-07T21:06:10.078Z,100.20
2018-12-07T21:09:00.482Z,102.90
2018-12-07T21:11:40.629Z,104.87
2018-12-07T21:14:32.131Z,106.00
2018-12-07T21:17:12.343Z,111.30
2018-12-07T21:19:47.452Z,114.50
2018-12-07T21:22:17.761Z,117.20
2018-12-07T21:24:47.710Z,118.87
2018-12-07T21:27:17.516Z,118.37
2018-12-07T21:29:57.949Z,122.67
2018-12-07T21:32:27.416Z,130.43
2018-12-07T21:35:02.795Z,115.33
2018-12-07T21:37:32.759Z,110.60
2018-12-07T21:40:24.354Z,110.60
2018-12-07T21:42:53.938Z,110.23
2018-12-07T21:45:23.513Z,108.03
2018-12-07T21:48:12.382Z,111.47
2018-12-07T21:50:43.870Z,110.60
2018-12-07T21:53:13.446Z,110.67
2018-12-07T21:55:43.269Z,108.90
2018-12-07T21:58:12.983Z,111.40
2018-12-07T22:00:42.498Z,110.13
2018-12-07T22:03:11.959Z,111.67
2018-12-07T22:05:41.539Z,113.07
2018-12-07T22:08:11.334Z,116.33
2018-12-07T22:10:41.058Z,113.17
2018-12-07T22:13:11.936Z,119.73
2018-12-07T22:15:41.504Z,118.70
2018-12-07T22:18:11.070Z,118.20
2018-12-07T22:20:41.034Z,115.57
2018-12-07T22:23:10.701Z,116.97
2018-12-07T22:25:40.407Z,115.20
2018-12-07T22:28:10.109Z,117.10
2018-12-07T22:30:39.859Z,116.37
2018-12-07T22:33:09.688Z,115.60
2018-12-07T22:35:39.536Z,116.50
2018-12-07T22:38:09.340Z,118.73
2018-12-07T22:40:39.135Z,119.57
2018-12-07T22:43:08.769Z,120.07
2018-12-07T22:45:39.276Z,120.07
2018-12-07T22:48:08.717Z,121.10
2018-12-07T22:50:38.572Z,119.33
2018-12-07T22:53:08.024Z,122.37
2018-12-07T22:55:37.444Z,122.53
2018-12-07T22:58:07.253Z,120.83
2018-12-07T23:00:38.754Z,122.13
2018-12-07T23:03:10.234Z,126.10
2018-12-07T23:05:39.672Z,124.10
2018-12-07T23:08:09.117Z,125.17
2018-12-07T23:10:38.528Z,124.50
2018-12-07T23:13:08.005Z,123.63
2018-12-07T23:15:37.424Z,122.00
2018-12-07T23:18:06.855Z,125.23
2018-12-07T23:20:36.269Z,123.90
2018-12-07T23:23:05.725Z,126.13
2018-12-07T23:25:35.142Z,123.90
2018-12-07T23:28:04.576Z,126.07
2018-12-07T23:30:34.021Z,122.30
2018-12-07T23:33:03.470Z,121.23
2018-12-07T23:35:32.909Z,124.70
2018-12-07T23:38:02.366Z,125.53
2018-12-07T23:40:31.821Z,122.67
2018-12-07T23:43:02.438Z,122.60
2018-12-07T23:45:31.888Z,123.47
2018-12-07T23:48:01.445Z,124.00
2018-12-07T23:50:31.723Z,122.70
2018-12-07T23:53:01.197Z,121.17
2018-12-07T23:55:30.612Z,121.27
2018-12-07T23:58:00.026Z,124.93
